createdAt,value
2019-04-28T00:01:53.698Z,100026.68
2019-04-28T00:04:24.470Z,100030.37
2019-04-28T00:06:55.734Z,100023.11
2019-04-28T00:09:26.690Z,100024.56
2019-04-28T00:11:57.726Z,100021.81
2019-04-28T00:14:28.571Z,100019.85
2019-04-28T00:17:01.063Z,100026.42
2019-04-28T00:19:32.570Z,100025.22
2019-04-28T00:22:12.547Z,100022.74
2019-04-28T00:24:51.522Z,100019.95
2019-04-28T00:27:22.469Z,100027.33
2019-04-28T00:29:53.486Z,100024.75
2019-04-28T00:32:24.336Z,100028.09
2019-04-28T00:34:55.544Z,100022.16
2019-04-28T00:37:32.505Z,100028.09
2019-04-28T00:40:03.700Z,100023.11
2019-04-28T00:42:34.777Z,100025.22
2019-04-28T00:45:07.179Z,100033.14
2019-04-28T00:47:38.030Z,100028.28
2019-04-28T00:50:09.077Z,100028.53
2019-04-28T00:52:41.767Z,100027.86
2019-04-28T00:55:12.777Z,100032.65
2019-04-28T00:57:43.543Z,100020.53
2019-04-28T01:00:16.242Z,100020.92
2019-04-28T01:02:47.330Z,100024.16
2019-04-28T01:05:19.086Z,100017.24
2019-04-28T01:07:51.117Z,100012.61
2019-04-28T01:10:23.025Z,100011.84
2019-04-28T01:12:53.876Z,100012.86
2019-04-28T01:15:43.795Z,100009.84
2019-04-28T01:18:30.339Z,100015.11
2019-04-28T01:21:01.234Z,100006.61
2019-04-28T01:23:33.486Z,100011.02
2019-04-28T01:26:05.514Z,100010.30
2019-04-28T01:28:36.309Z,100009.63
2019-04-28T01:31:19.566Z,100004.16
2019-04-28T01:34:10.339Z,100010.20
2019-04-28T01:36:41.115Z,100012.33
2019-04-28T01:39:12.293Z,100012.08
2019-04-28T01:41:43.140Z,100004.41
2019-04-28T01:44:13.893Z,100005.95
2019-04-28T01:46:45.157Z,100010.76
2019-04-28T01:49:16.163Z,100009.82
2019-04-28T01:51:57.148Z,100015.72
2019-04-28T01:54:30.216Z,100014.57
2019-04-28T01:57:01.943Z,100023.92
2019-04-28T01:59:34.786Z,100022.14
2019-04-28T02:02:05.918Z,100027.80
2019-04-28T02:04:37.015Z,100023.69
2019-04-28T02:07:07.930Z,100027.57
2019-04-28T02:09:39.595Z,100021.95
2019-04-28T02:12:10.725Z,100023.31
2019-04-28T02:14:41.797Z,100025.25
2019-04-28T02:17:12.582Z,100024.87
2019-04-28T02:19:43.676Z,100027.45
2019-04-28T02:22:30.156Z,100026.61
2019-04-28T02:25:01.823Z,100026.94
2019-04-28T02:27:32.775Z,100028.78
2019-04-28T02:30:04.987Z,100032.90
2019-04-28T02:32:35.885Z,100031.54
2019-04-28T02:35:10.409Z,100032.34
2019-04-28T02:37:40.695Z,100030.89
2019-04-28T02:40:11.790Z,100030.09
2019-04-28T02:42:42.661Z,100028.85
2019-04-28T02:45:21.493Z,100034.14
2019-04-28T02:47:52.734Z,100034.08
2019-04-28T02:50:41.659Z,100033.80
2019-04-28T02:53:41.024Z,100030.81
2019-04-28T02:56:11.899Z,100035.72
2019-04-28T02:58:43.152Z,100031.50
2019-04-28T03:01:22.778Z,100029.41
2019-04-28T03:03:47.036Z,100023.91
2019-04-28T03:06:20.729Z,100020.72
2019-04-28T03:08:51.407Z,100016.40
2019-04-28T03:11:22.269Z,100018.47
2019-04-28T03:13:53.116Z,100019.05
2019-04-28T03:16:24.140Z,100018.34
2019-04-28T03:18:55.318Z,100023.30
2019-04-28T03:21:26.757Z,100026.27
2019-04-28T03:23:57.778Z,100026.11
2019-04-28T03:26:35.351Z,100026.71
2019-04-28T03:29:11.608Z,100024.91
2019-04-28T03:32:10.236Z,100026.40
2019-04-28T03:34:23.484Z,100027.84
2019-04-28T03:36:52.642Z,100023.59
2019-04-28T03:39:23.558Z,100019.95
2019-04-28T03:41:54.562Z,100015.04
2019-04-28T03:44:25.644Z,100024.00
2019-04-28T03:46:56.666Z,100028.48
2019-04-28T03:49:34.405Z,100027.66
2019-04-28T03:52:05.913Z,100023.42
2019-04-28T03:54:36.997Z,100025.22
2019-04-28T03:57:07.832Z,100025.22
2019-04-28T03:59:41.312Z,100024.23
2019-04-28T04:02:11.673Z,100018.62
2019-04-28T04:04:43.936Z,100020.53
2019-04-28T04:07:14.921Z,100016.27
2019-04-28T04:10:04.505Z,100018.02
2019-04-28T04:12:43.484Z,100019.71
2019-04-28T04:15:43.534Z,100022.34
2019-04-28T04:18:21.079Z,100026.97
2019-04-28T04:20:52.009Z,100024.29
2019-04-28T04:23:23.541Z,100032.69
2019-04-28T04:25:54.379Z,100033.94
2019-04-28T04:28:25.631Z,100037.05
2019-04-28T04:30:56.706Z,100043.77
2019-04-28T04:33:27.560Z,100046.59
2019-04-28T04:36:01.329Z,100043.39
2019-04-28T04:38:31.502Z,100045.95
2019-04-28T04:41:03.906Z,100052.41
2019-04-28T04:43:34.967Z,100051.72
2019-04-28T04:46:21.455Z,100058.12
2019-04-28T04:48:51.349Z,100062.33
2019-04-28T04:51:22.139Z,100060.80
2019-04-28T04:53:52.983Z,100061.58
2019-04-28T04:56:23.731Z,100068.88
2019-04-28T04:58:54.503Z,100070.10
2019-04-28T05:01:50.903Z,100063.20
2019-04-28T05:04:39.650Z,100060.78
2019-04-28T05:07:10.887Z,100062.53
2019-04-28T05:09:41.604Z,100070.23
2019-04-28T05:12:12.439Z,100068.98
2019-04-28T05:14:43.606Z,100071.57
2019-04-28T05:17:14.662Z,100070.87
2019-04-28T05:19:45.433Z,100073.29
2019-04-28T05:22:17.542Z,100073.78
2019-04-28T05:24:57.598Z,100071.48
2019-04-28T05:27:30.060Z,100071.23
2019-04-28T05:30:02.550Z,100068.20
2019-04-28T05:32:43.219Z,100066.41
2019-04-28T05:35:06.855Z,100062.03
2019-04-28T05:37:38.062Z,100065.88
2019-04-28T05:40:10.447Z,100071.43
2019-04-28T05:42:58.255Z,100063.13
2019-04-28T05:45:32.215Z,100069.81
2019-04-28T05:48:03.164Z,100077.84
2019-04-28T05:50:40.090Z,100073.70
2019-04-28T05:53:32.734Z,100078.50
2019-04-28T05:56:20.884Z,100073.13
2019-04-28T05:58:57.819Z,100081.19
2019-04-28T06:01:35.858Z,100083.95
2019-04-28T06:04:06.682Z,100084.41
2019-04-28T06:06:40.593Z,100086.09
2019-04-28T06:09:21.479Z,100084.99
2019-04-28T06:11:54.542Z,100089.61
2019-04-28T06:14:24.877Z,100087.34
2019-04-28T06:16:55.655Z,100092.05
2019-04-28T06:19:26.671Z,100087.18
2019-04-28T06:21:57.663Z,100092.53
2019-04-28T06:24:28.658Z,100094.86
2019-04-28T06:26:59.417Z,100103.55
2019-04-28T06:29:30.177Z,100102.25
2019-04-28T06:32:01.191Z,100102.05
2019-04-28T06:34:32.023Z,100099.08
2019-04-28T06:37:02.934Z,100105.57
2019-04-28T06:39:33.753Z,100102.41
2019-04-28T06:42:06.266Z,100103.42
2019-04-28T06:44:37.161Z,100106.13
2019-04-28T06:47:07.935Z,100104.84
2019-04-28T06:49:38.770Z,100116.51
2019-04-28T06:52:09.617Z,100111.86
2019-04-28T06:54:40.458Z,100114.45
2019-04-28T06:57:11.363Z,100114.84
2019-04-28T06:59:42.341Z,100109.58
2019-04-28T07:02:13.118Z,100109.92
2019-04-28T07:04:44.413Z,100114.91
2019-04-28T07:07:15.498Z,100113.16
2019-04-28T07:09:46.569Z,100115.58
2019-04-28T07:12:17.346Z,100117.59
2019-04-28T07:14:48.191Z,100121.78
2019-04-28T07:17:18.958Z,100122.22
2019-04-28T07:19:57.269Z,100120.19
2019-04-28T07:22:29.674Z,100117.43
2019-04-28T07:25:00.442Z,100126.44
2019-04-28T07:27:31.203Z,100114.58
2019-04-28T07:30:02.037Z,100114.22
2019-04-28T07:32:33.165Z,100115.88
2019-04-28T07:35:03.993Z,100118.05
2019-04-28T07:37:35.603Z,100121.61
2019-04-28T07:40:06.595Z,100115.35
2019-04-28T07:42:37.402Z,100113.02
2019-04-28T07:45:08.261Z,100110.62
2019-04-28T07:47:39.282Z,100120.55
2019-04-28T07:50:10.223Z,100120.64
2019-04-28T07:52:48.711Z,100122.77
2019-04-28T07:55:19.466Z,100123.92
2019-04-28T07:57:50.564Z,100117.03
2019-04-28T08:00:28.334Z,100126.59
2019-04-28T08:02:59.625Z,100128.04
2019-04-28T08:05:30.885Z,100132.39
2019-04-28T08:08:02.060Z,100133.92
2019-04-28T08:10:33.387Z,100130.28
2019-04-28T08:13:04.419Z,100133.66
2019-04-28T08:15:35.558Z,100128.47
2019-04-28T08:18:06.778Z,100134.28
2019-04-28T08:20:37.600Z,100121.64
2019-04-28T08:23:08.364Z,100126.59
2019-04-28T08:25:39.376Z,100124.52
2019-04-28T08:28:10.379Z,100127.28
2019-04-28T08:30:41.208Z,100130.62
2019-04-28T08:33:27.908Z,100133.73
2019-04-28T08:35:58.654Z,100132.61
2019-04-28T08:38:29.489Z,100127.83
2019-04-28T08:41:00.835Z,100120.70
2019-04-28T08:43:31.692Z,100120.67
2019-04-28T08:46:02.461Z,100119.02
2019-04-28T08:48:33.455Z,100117.86
2019-04-28T08:51:04.534Z,100125.30
2019-04-28T08:53:35.461Z,100122.76
2019-04-28T08:56:06.542Z,100117.05
2019-04-28T08:58:38.766Z,100125.75
2019-04-28T09:01:11.681Z,100118.25
2019-04-28T09:03:52.346Z,100126.78
2019-04-28T09:06:59.124Z,100120.70
2019-04-28T09:09:41.718Z,100127.55
2019-04-28T09:12:17.085Z,100135.18
2019-04-28T09:15:13.468Z,100140.92
2019-04-28T09:17:58.418Z,100141.83
2019-04-28T09:20:40.435Z,100139.81
2019-04-28T09:23:11.366Z,100143.86
2019-04-28T09:25:42.117Z,100147.75
2019-04-28T09:28:13.689Z,100145.55
2019-04-28T09:30:44.450Z,100147.59
2019-04-28T09:33:15.301Z,100144.52
2019-04-28T09:35:46.623Z,100138.50
2019-04-28T09:38:17.686Z,100145.63
2019-04-28T09:40:48.498Z,100134.34
2019-04-28T09:43:37.054Z,100147.86
2019-04-28T09:46:16.105Z,100142.58
2019-04-28T09:48:47.138Z,100135.34
2019-04-28T09:51:18.325Z,100139.33
2019-04-28T09:53:49.113Z,100141.27
2019-04-28T09:56:20.432Z,100133.66
2019-04-28T09:58:51.737Z,100138.67
2019-04-28T10:01:23.342Z,100133.84
2019-04-28T10:03:54.128Z,100131.97
2019-04-28T10:06:24.891Z,100130.66
2019-04-28T10:08:56.289Z,100130.46
2019-04-28T10:11:30.665Z,100131.36
2019-04-28T10:13:59.879Z,100133.73
2019-04-28T10:16:30.889Z,100132.97
2019-04-28T10:19:01.767Z,100133.62
2019-04-28T10:21:32.759Z,100132.64
2019-04-28T10:24:03.858Z,100140.40
2019-04-28T10:26:36.402Z,100136.50
2019-04-28T10:29:07.306Z,100136.73
2019-04-28T10:31:38.081Z,100136.06
2019-04-28T10:34:09.158Z,100130.78
2019-04-28T10:36:40.214Z,100130.52
2019-04-28T10:39:34.336Z,100125.31
2019-04-28T10:42:05.611Z,100125.95
2019-04-28T10:44:39.957Z,100118.70
2019-04-28T10:47:11.032Z,100117.34
2019-04-28T10:49:41.891Z,100118.00
2019-04-28T10:52:13.146Z,100114.09
2019-04-28T10:54:44.973Z,100118.34
2019-04-28T10:57:16.419Z,100114.98
2019-04-28T10:59:47.454Z,100117.63
2019-04-28T11:02:18.210Z,100120.81
2019-04-28T11:05:07.796Z,100116.88
2019-04-28T11:07:30.113Z,100120.18
2019-04-28T11:10:20.113Z,100111.23
2019-04-28T11:12:51.020Z,100115.83
2019-04-28T11:15:29.358Z,100117.12
2019-04-28T11:18:00.194Z,100116.41
2019-04-28T11:20:30.976Z,100115.05
2019-04-28T11:23:01.815Z,100116.17
2019-04-28T11:25:32.601Z,100112.95
2019-04-28T11:28:03.681Z,100114.59
2019-04-28T11:30:34.535Z,100120.11
2019-04-28T11:33:22.257Z,100115.89
2019-04-28T11:35:53.114Z,100121.07
2019-04-28T11:38:24.137Z,100113.68
2019-04-28T11:40:55.043Z,100111.42
2019-04-28T11:43:26.047Z,100107.77
2019-04-28T11:45:57.128Z,100111.79
2019-04-28T11:48:28.398Z,100121.14
2019-04-28T11:51:00.714Z,100112.33
2019-04-28T11:53:32.219Z,100111.67
2019-04-28T11:56:04.209Z,100105.80
2019-04-28T11:58:35.637Z,100106.37
2019-04-28T12:01:07.046Z,100111.03
2019-04-28T12:03:37.900Z,100107.44
2019-04-28T12:06:09.071Z,100101.92
2019-04-28T12:08:40.078Z,100104.50
2019-04-28T12:11:23.370Z,100107.95
2019-04-28T12:14:28.676Z,100104.86
2019-04-28T12:17:20.019Z,100102.52
2019-04-28T12:19:56.813Z,100103.73
2019-04-28T12:22:27.676Z,100099.91
2019-04-28T12:24:59.894Z,100099.61
2019-04-28T12:27:30.689Z,100099.70
2019-04-28T12:30:01.790Z,100099.97
2019-04-28T12:32:32.993Z,100092.35
2019-04-28T12:35:03.978Z,100094.78
2019-04-28T12:37:35.291Z,100098.45
2019-04-28T12:40:06.616Z,100101.40
2019-04-28T12:42:37.658Z,100100.97
2019-04-28T12:45:08.763Z,100095.31
2019-04-28T12:47:39.615Z,100096.00
2019-04-28T12:50:17.247Z,100094.97
2019-04-28T12:52:48.315Z,100090.92
2019-04-28T12:55:19.158Z,100090.10
2019-04-28T12:57:50.162Z,100088.84
2019-04-28T13:00:35.936Z,100092.31
2019-04-28T13:03:37.679Z,100089.22
2019-04-28T13:06:10.478Z,100088.06
2019-04-28T13:08:41.570Z,100087.98
2019-04-28T13:11:12.606Z,100087.05
2019-04-28T13:13:46.769Z,100086.70
2019-04-28T13:16:15.929Z,100083.11
2019-04-28T13:18:46.986Z,100087.86
2019-04-28T13:21:17.836Z,100089.62
2019-04-28T13:23:48.842Z,100085.48
2019-04-28T13:26:19.888Z,100078.36
2019-04-28T13:28:50.907Z,100080.23
2019-04-28T13:31:21.693Z,100087.73
2019-04-28T13:33:56.300Z,100083.11
2019-04-28T13:36:25.700Z,100081.86
2019-04-28T13:38:58.741Z,100077.98
2019-04-28T13:41:29.845Z,100081.81
2019-04-28T13:44:02.638Z,100076.48
2019-04-28T13:46:34.009Z,100076.56
2019-04-28T13:49:06.996Z,100073.66
2019-04-28T13:51:38.844Z,100057.17
2019-04-28T13:54:11.562Z,100058.20
2019-04-28T13:56:42.663Z,100057.97
2019-04-28T13:59:18.266Z,100057.97
2019-04-28T14:01:59.581Z,100044.70
2019-04-28T14:04:39.663Z,100044.70
2019-04-28T14:07:10.540Z,100051.91
2019-04-28T14:09:41.763Z,100056.12
2019-04-28T14:12:12.799Z,100047.77
2019-04-28T14:14:43.810Z,100050.73
2019-04-28T14:17:14.778Z,100043.35
2019-04-28T14:19:45.535Z,100036.55
2019-04-28T14:22:16.305Z,100034.98
2019-04-28T14:24:47.372Z,100035.84
2019-04-28T14:27:18.148Z,100027.36
2019-04-28T14:29:49.140Z,100028.94
2019-04-28T14:32:19.915Z,100009.27
2019-04-28T14:34:50.925Z,100009.27
2019-04-28T14:37:21.976Z,100021.16
2019-04-28T14:39:53.064Z,100021.16
2019-04-28T14:42:23.845Z,100020.00
2019-04-28T14:44:54.840Z,100022.12
2019-04-28T14:47:27.104Z,100018.80
2019-04-28T14:49:57.896Z,100021.45
2019-04-28T14:52:29.211Z,100016.06
2019-04-28T14:54:59.967Z,100017.86
2019-04-28T14:57:30.975Z,100022.40
2019-04-28T15:00:01.838Z,100029.39
2019-04-28T15:02:53.637Z,100032.19
2019-04-28T15:05:39.432Z,100029.45
2019-04-28T15:08:26.333Z,100029.45
2019-04-28T15:11:15.207Z,100031.50
2019-04-28T15:13:46.270Z,100039.98
2019-04-28T15:16:17.115Z,100035.72
2019-04-28T15:18:48.202Z,100035.20
2019-04-28T15:21:19.442Z,100028.70
2019-04-28T15:23:50.241Z,100033.23
2019-04-28T15:26:21.575Z,100031.55
2019-04-28T15:28:52.611Z,100025.23
2019-04-28T15:31:23.386Z,100027.00
2019-04-28T15:33:55.379Z,100035.23
2019-04-28T15:36:26.151Z,100037.34
2019-04-28T15:38:56.972Z,100041.92
2019-04-28T15:41:27.742Z,100038.17
2019-04-28T15:43:58.779Z,100038.44
2019-04-28T15:46:29.622Z,100033.34
2019-04-28T15:49:00.811Z,100031.55
2019-04-28T15:51:31.587Z,100033.34
2019-04-28T15:54:02.639Z,100041.17
2019-04-28T15:56:43.251Z,100039.84
2019-04-28T15:59:14.291Z,100045.42
2019-04-28T16:01:45.052Z,100053.03
2019-04-28T16:04:18.296Z,100054.22
2019-04-28T16:06:48.422Z,100060.40
2019-04-28T16:09:19.528Z,100052.91
2019-04-28T16:11:50.413Z,100052.93
2019-04-28T16:14:21.494Z,100060.48
2019-04-28T16:16:52.597Z,100061.18
2019-04-28T16:19:23.377Z,100064.19
2019-04-28T16:21:54.446Z,100066.53
2019-04-28T16:24:25.415Z,100062.62
2019-04-28T16:26:56.624Z,100059.78
2019-04-28T16:29:27.759Z,100063.45
2019-04-28T16:31:58.648Z,100060.84
2019-04-28T16:34:29.454Z,100062.14
2019-04-28T16:37:00.271Z,100064.88
2019-04-28T16:39:31.063Z,100061.91
2019-04-28T16:42:08.349Z,100067.59
2019-04-28T16:44:42.602Z,100069.97
2019-04-28T16:47:13.634Z,100064.75
2019-04-28T16:49:46.037Z,100065.33
2019-04-28T16:52:17.336Z,100062.27
2019-04-28T16:54:50.326Z,100069.23
2019-04-28T16:57:37.658Z,100078.13
2019-04-28T17:00:19.754Z,100084.40
2019-04-28T17:02:52.648Z,100082.73
2019-04-28T17:05:23.659Z,100083.34
2019-04-28T17:07:54.459Z,100082.14
2019-04-28T17:10:25.518Z,100084.61
2019-04-28T17:12:56.908Z,100086.75
2019-04-28T17:15:30.261Z,100088.86
2019-04-28T17:18:00.620Z,100095.13
2019-04-28T17:20:31.708Z,100097.87
2019-04-28T17:23:02.988Z,100097.03
2019-04-28T17:25:33.748Z,100094.56
2019-04-28T17:28:04.916Z,100093.86
2019-04-28T17:30:35.856Z,100090.42
2019-04-28T17:33:07.115Z,100092.86
2019-04-28T17:35:38.136Z,100097.69
2019-04-28T17:38:09.002Z,100097.00
2019-04-28T17:40:40.398Z,100094.25
2019-04-28T17:43:12.647Z,100096.38
2019-04-28T17:45:43.412Z,100097.08
2019-04-28T17:48:19.491Z,100106.83
2019-04-28T17:50:50.330Z,100106.97
2019-04-28T17:53:21.119Z,100113.11
2019-04-28T17:55:52.377Z,100111.77
2019-04-28T17:58:23.239Z,100110.15
2019-04-28T18:01:18.924Z,100119.42
2019-04-28T18:04:20.595Z,100121.63
2019-04-28T18:06:57.075Z,100126.08
2019-04-28T18:09:28.053Z,100132.19
2019-04-28T18:11:59.446Z,100136.63
2019-04-28T18:14:30.505Z,100139.78
2019-04-28T18:17:23.547Z,100145.17
2019-04-28T18:19:54.756Z,100150.65
2019-04-28T18:22:25.520Z,100150.92
2019-04-28T18:24:56.403Z,100155.72
2019-04-28T18:27:27.552Z,100156.23
2019-04-28T18:29:58.824Z,100158.67
2019-04-28T18:32:51.615Z,100168.59
2019-04-28T18:35:40.130Z,100171.00
2019-04-28T18:38:17.606Z,100172.76
2019-04-28T18:41:05.090Z,100176.53
2019-04-28T18:43:44.553Z,100182.46
2019-04-28T18:46:18.069Z,100178.89
2019-04-28T18:48:48.846Z,100181.61
2019-04-28T18:51:19.873Z,100188.80
2019-04-28T18:53:50.639Z,100189.02
2019-04-28T18:56:21.642Z,100195.59
2019-04-28T18:58:52.724Z,100195.80
2019-04-28T19:01:43.091Z,100200.94
2019-04-28T19:04:15.025Z,100209.50
2019-04-28T19:06:46.842Z,100207.27
2019-04-28T19:09:25.634Z,100208.12
2019-04-28T19:12:11.678Z,100213.34
2019-04-28T19:14:50.506Z,100216.86
2019-04-28T19:17:31.111Z,100218.81
2019-04-28T19:20:01.884Z,100218.62
2019-04-28T19:22:43.740Z,100221.98
2019-04-28T19:25:14.946Z,100220.03
2019-04-28T19:27:45.711Z,100223.74
2019-04-28T19:30:16.567Z,100226.25
2019-04-28T19:32:47.486Z,100220.88
2019-04-28T19:35:18.732Z,100228.84
2019-04-28T19:37:49.741Z,100227.71
2019-04-28T19:40:20.818Z,100230.11
2019-04-28T19:42:51.921Z,100227.41
2019-04-28T19:45:22.774Z,100224.55
2019-04-28T19:47:53.847Z,100224.55
2019-04-28T19:50:24.616Z,100228.62
2019-04-28T19:52:56.627Z,100231.41
2019-04-28T19:55:32.078Z,100227.52
2019-04-28T19:58:14.214Z,100233.24
2019-04-28T20:00:54.197Z,100231.22
2019-04-28T20:03:24.955Z,100230.47
2019-04-28T20:05:55.886Z,100229.06
2019-04-28T20:08:26.738Z,100233.39
2019-04-28T20:10:58.766Z,100239.09
2019-04-28T20:13:31.412Z,100244.58
2019-04-28T20:16:02.134Z,100242.03
2019-04-28T20:18:33.199Z,100248.33
2019-04-28T20:21:04.453Z,100251.00
2019-04-28T20:23:35.635Z,100255.94
2019-04-28T20:26:07.038Z,100261.34
2019-04-28T20:28:38.115Z,100263.98
2019-04-28T20:31:09.207Z,100267.02
2019-04-28T20:33:39.954Z,100272.64
2019-04-28T20:36:17.339Z,100268.82
2019-04-28T20:38:50.445Z,100272.19
2019-04-28T20:41:23.681Z,100273.82
2019-04-28T20:43:55.650Z,100282.92
2019-04-28T20:46:26.489Z,100287.94
2019-04-28T20:48:57.321Z,100280.23
2019-04-28T20:51:28.086Z,100281.64
2019-04-28T20:53:59.070Z,100284.44
2019-04-28T20:56:29.862Z,100284.85
2019-04-28T20:59:00.619Z,100291.37
2019-04-28T21:01:31.895Z,100289.62
2019-04-28T21:04:02.721Z,100294.67
2019-04-28T21:06:33.747Z,100298.16
2019-04-28T21:09:06.124Z,100295.63
2019-04-28T21:11:38.959Z,100300.97
2019-04-28T21:14:10.038Z,100304.40
2019-04-28T21:16:41.055Z,100296.59
2019-04-28T21:19:12.063Z,100304.13
2019-04-28T21:21:42.840Z,100299.78
2019-04-28T21:24:16.693Z,100305.12
2019-04-28T21:26:46.603Z,100308.28
2019-04-28T21:29:17.627Z,100307.16
2019-04-28T21:31:48.725Z,100311.87
2019-04-28T21:34:19.470Z,100312.95
2019-04-28T21:36:50.505Z,100314.19
2019-04-28T21:39:21.627Z,100313.95
2019-04-28T21:41:52.589Z,100312.71
2019-04-28T21:44:36.429Z,100320.08
2019-04-28T21:47:14.645Z,100320.19
2019-04-28T21:49:45.669Z,100321.27
2019-04-28T21:52:16.592Z,100318.55
2019-04-28T21:54:47.355Z,100322.34
2019-04-28T21:57:18.465Z,100322.14
2019-04-28T21:59:50.199Z,100318.95
2019-04-28T22:02:21.452Z,100323.77
2019-04-28T22:04:52.801Z,100324.45
2019-04-28T22:07:23.592Z,100326.61
2019-04-28T22:09:54.375Z,100330.48
2019-04-28T22:12:25.157Z,100334.27
2019-04-28T22:14:56.172Z,100340.75
2019-04-28T22:17:28.938Z,100335.43
2019-04-28T22:19:59.947Z,100333.84
2019-04-28T22:22:30.997Z,100337.91
2019-04-28T22:25:08.752Z,100336.11
2019-04-28T22:27:41.906Z,100334.61
2019-04-28T22:30:12.864Z,100336.03
2019-04-28T22:32:43.710Z,100335.99
2019-04-28T22:35:15.442Z,100344.36
2019-04-28T22:37:46.551Z,100345.27
2019-04-28T22:40:17.647Z,100346.64
2019-04-28T22:42:48.719Z,100342.34
2019-04-28T22:45:19.799Z,100341.42
2019-04-28T22:47:50.888Z,100347.44
2019-04-28T22:50:41.779Z,100343.23
2019-04-28T22:53:14.454Z,100350.98
2019-04-28T22:55:50.575Z,100355.06
2019-04-28T22:58:37.043Z,100353.92
2019-04-28T23:01:24.011Z,100362.50
2019-04-28T23:04:03.914Z,100370.54
2019-04-28T23:06:34.759Z,100369.09
2019-04-28T23:09:07.307Z,100362.84
2019-04-28T23:11:40.231Z,100367.86
2019-04-28T23:14:11.250Z,100368.37
2019-04-28T23:16:42.168Z,100364.78
2019-04-28T23:19:15.022Z,100365.57
2019-04-28T23:22:13.643Z,100369.79
2019-04-28T23:24:44.483Z,100370.72
2019-04-28T23:27:15.318Z,100374.41
2019-04-28T23:29:46.082Z,100370.52
2019-04-28T23:32:17.185Z,100366.41
2019-04-28T23:34:48.256Z,100369.70
2019-04-28T23:37:19.345Z,100375.28
2019-04-28T23:39:50.421Z,100379.64
2019-04-28T23:42:29.364Z,100377.71
2019-04-28T23:45:00.667Z,100381.72
2019-04-28T23:47:31.512Z,100375.66
2019-04-28T23:50:02.348Z,100370.78
2019-04-28T23:52:47.135Z,100373.36
2019-04-28T23:55:20.369Z,100369.06
2019-04-28T23:57:51.152Z,100366.68
